• Join FlightAware (Why Join?)
  • Login
  • US Flag 
10:48AM EDT


 

Airport Tracker/Info


-or-


 

Live Flight TrackerFlight Track Log ✈ N131PT ✈ 30-Oct-2013 ✈ KESN - KFVX

Flight Track Log - Related Links

Times and Time Zones

All times are in EDT time to prevent confusion due to time zone crossing. See the N131PT flight status page for this flight to view local times or setup timezone preferences in your user account.

Time Position Orientation Groundspeed Altitude Reporting Facility
EDT Latitude Longitude Course Direction KTS MPH feet Rate Location/Type
12:09PM 38.8500 -76.0667 354° North 147 169 2,000  Level Potomac TRACON
12:10PM 38.8853 -76.0717 354° North 148 170 3,100 1,500 Climbing Washington Center
12:11PM 38.9247 -76.0800 351° North 154 177 4,600 1,440 Climbing Washington Center
12:12PM 38.9561 -76.1014 332° Northwest 142 163 6,100 1,440 Climbing Washington Center
12:13PM 38.9267 -76.1253 212° Southwest 67 77 7,500 1,380 Climbing Washington Center
12:14PM 38.8892 -76.1464 204° Southwest 95 109 8,900 1,200 Climbing Washington Center
12:15PM 38.8514 -76.1675 204° Southwest 144 166 10,000 540 Climbing Washington Center
12:16PM 38.8075 -76.1936 205° Southwest 170 196 10,000 540 Level Washington Center
12:17PM 38.7658 -76.2200 206° Southwest 178 205 11,200 960 Climbing Washington Center
12:18PM 38.7281 -76.2411 204° Southwest 168 193 12,000 360 Climbing Washington Center
12:19PM 38.6758 -76.2672 201° Southwest 174 200 12,000  Level Washington Center
12:20PM 38.6278 -76.2958 205° Southwest 186 214 12,000  Level Washington Center
12:21PM 38.5714 -76.3167 196° South 202 232 12,000  Level Washington Center
12:22PM 38.5150 -76.3347 194° South 207 238 12,000  Level Washington Center
12:23PM 38.4522 -76.3553 194° South 212 244 12,000  Level Washington Center
12:24PM 38.3958 -76.3733 194° South 212 244 12,000  Level Washington Center
12:25PM 38.3375 -76.3883 191° South 212 244 12,000  Level Washington Center
12:26PM 38.2808 -76.4039 192° South 212 244 12,000  Level Washington Center
12:27PM 38.2450 -76.4589 230° Southwest 202 232 12,000 120 Level Washington Center
12:28PM 38.2094 -76.5061 226° Southwest 202 232 12,300 720 Climbing Washington Center
12:29PM 38.1797 -76.5481 228° Southwest 185 213 13,500 840 Climbing Washington Center
12:30PM 38.1503 -76.5897 228° Southwest 173 199 14,000 240 Climbing Washington Center
12:31PM 38.1164 -76.6394 229° Southwest 173 199 14,000  Level Washington Center
12:32PM 38.0806 -76.6892 228° Southwest 189 217 14,000  Level Washington Center
12:33PM 38.0489 -76.7336 228° Southwest 194 223 14,000  Level Washington Center
12:34PM 38.0131 -76.7831 227° Southwest 194 223 14,000  Level Washington Center
12:35PM 37.9769 -76.8353 229° Southwest 194 223 14,000  Level Washington Center
12:36PM 37.9514 -76.8928 241° Southwest 194 223 14,000  Level Washington Center
12:37PM 37.9278 -76.9528 244° Southwest 194 223 14,000  Level Washington Center
12:38PM 37.9061 -77.0131 246° West 189 217 14,000  Level Washington Center
12:39PM 37.8825 -77.0731 244° Southwest 189 217 14,000  Level Washington Center
12:40PM 37.8608 -77.1331 245° Southwest 194 223 14,000  Level Washington Center
12:41PM 37.8392 -77.1931 245° Southwest 194 223 14,000  Level Washington Center
12:42PM 37.8156 -77.2531 244° Southwest 194 223 14,000  Level Washington Center
12:43PM 37.7939 -77.3106 245° Southwest 194 223 14,000  Level Washington Center
12:44PM 37.7700 -77.3678 242° Southwest 194 223 14,000  Level Washington Center
12:45PM 37.7483 -77.4275 245° Southwest 194 223 14,000 -240 Level Washington Center
12:46PM 37.7244 -77.4928 245° Southwest 194 223 13,600 -840 Descending Washington Center
12:47PM 37.7025 -77.5497 244° Southwest 194 223 12,400 -1,320 Descending Washington Center
12:48PM 37.6786 -77.6147 245° Southwest 194 223 11,100 -1,140 Descending Washington Center
12:49PM 37.6547 -77.6719 242° Southwest 194 223 10,200 -1,140 Descending Washington Center
12:50PM 37.6328 -77.7317 245° Southwest 194 223 8,900 -1,140 Descending Washington Center
12:51PM 37.6108 -77.7886 244° Southwest 192 221 8,000 -480 Descending Washington Center
12:52PM 37.5889 -77.8456 244° Southwest 192 221 8,000  Level Washington Center
12:53PM 37.5692 -77.8975 244° Southwest 187 215 8,000  Level Washington Center
12:54PM 37.5472 -77.9544 244° Southwest 182 209 8,000  Level Washington Center
12:55PM 37.5253 -78.0061 242° Southwest 182 209 8,000  Level Washington Center
12:56PM 37.5033 -78.0606 243° Southwest 177 204 8,000  Level Washington Center
12:57PM 37.4792 -78.1200 243° Southwest 177 204 8,000 -720 Level Washington Center
12:58PM 37.4656 -78.1717 252° West 182 209 6,600 -1,440 Descending Washington Center
12:59PM 37.4458 -78.2233 244° Southwest 175 201 5,100 -1,500 Descending Washington Center